Time;durP1;ratioP1;P1;durP2;ratioP2;P2;SDS_P1;SDS_P2;PMS_P1;PMS_P2;Temp;Humidity;BMP_temperature;BMP_pressure;BME280_temperature;BME280_humidity;BME280_pressure;Samples;Min_cycle;Max_cycle;Signal;HPM_P1;HPM_P2
2023/09/02 00:01:16;;;;;;;571.33;526.45;;;12.80;79.40;;;;;;4990088;28;20057;-59
2023/09/02 00:03:42;;;;;;;567.65;522.28;;;12.80;79.40;;;;;;4988621;28;20058;-59
2023/09/02 00:06:07;;;;;;;598.95;551.03;;;12.80;79.50;;;;;;4973508;28;20421;-60
2023/09/02 00:08:33;;;;;;;585.60;539.53;;;12.80;79.70;;;;;;4983780;28;20053;-60
2023/09/02 00:10:59;;;;;;;605.40;555.47;;;12.70;79.80;;;;;;4999585;28;20046;-60
2023/09/02 00:13:25;;;;;;;614.42;565.38;;;12.70;79.80;;;;;;4988094;28;20050;-60
2023/09/02 00:15:50;;;;;;;513.95;471.63;;;12.70;79.70;;;;;;5003254;28;20046;-60
2023/09/02 00:18:16;;;;;;;656.08;602.22;;;12.70;79.60;;;;;;4978192;28;20054;-59
2023/09/02 00:20:41;;;;;;;572.25;528.38;;;12.70;79.60;;;;;;4994007;28;20117;-60
2023/09/02 00:23:07;;;;;;;666.38;610.72;;;12.60;79.50;;;;;;5002507;28;20054;-59
2023/09/02 00:25:33;;;;;;;576.45;532.45;;;12.60;79.50;;;;;;4992383;28;20050;-60
2023/09/02 00:27:58;;;;;;;609.47;561.53;;;12.60;79.60;;;;;;4985289;28;20042;-60
2023/09/02 00:30:24;;;;;;;537.15;494.58;;;12.60;79.50;;;;;;5006116;28;20081;-60
2023/09/02 00:32:50;;;;;;;556.03;513.67;;;12.50;79.40;;;;;;5006781;28;20042;-59
2023/09/02 00:35:16;;;;;;;480.90;438.10;;;12.50;79.40;;;;;;5006985;28;20042;-60
2023/09/02 00:37:41;;;;;;;670.38;617.55;;;12.50;79.50;;;;;;4977431;28;20046;-60
2023/09/02 00:40:13;;;;;;;570.13;523.75;;;12.50;79.40;;;;;;5001703;28;20147;-60
2023/09/02 00:42:40;;;;;;;646.47;592.85;;;12.50;79.50;;;;;;4980648;28;20046;-59
2023/09/02 00:45:06;;;;;;;556.17;513.35;;;12.50;79.60;;;;;;5008464;28;20133;-59
2023/09/02 00:47:32;;;;;;;582.28;537.85;;;12.50;79.50;;;;;;4983927;28;20035;-60
2023/09/02 00:50:00;;;;;;;683.85;626.83;;;12.50;79.50;;;;;;4997924;28;20046;-59
2023/09/02 00:52:25;;;;;;;587.38;542.88;;;12.50;79.50;;;;;;5007034;28;20461;-59
2023/09/02 00:54:51;;;;;;;641.80;591.00;;;12.50;79.60;;;;;;5008884;28;20053;-59
2023/09/02 00:57:17;;;;;;;620.20;571.25;;;12.50;79.50;;;;;;4984001;28;20297;-59
2023/09/02 00:59:43;;;;;;;602.28;557.17;;;12.40;79.50;;;;;;4994852;28;20050;-59
2023/09/02 01:02:11;;;;;;;595.00;545.17;;;12.40;79.50;;;;;;4980752;28;20162;-59
2023/09/02 01:04:37;;;;;;;541.05;500.95;;;12.40;79.50;;;;;;4979097;28;20065;-59
2023/09/02 01:07:02;;;;;;;510.17;472.20;;;12.40;79.50;;;;;;4972941;28;20042;-58
2023/09/02 01:09:30;;;;;;;639.47;588.38;;;12.30;79.40;;;;;;4998564;28;20559;-59
2023/09/02 01:11:56;;;;;;;581.47;531.72;;;12.30;79.50;;;;;;4990945;28;20073;-59
2023/09/02 01:14:22;;;;;;;559.65;514.67;;;12.30;79.50;;;;;;4987994;28;20539;-59
2023/09/02 01:16:48;;;;;;;477.13;440.40;;;12.30;79.60;;;;;;5001138;28;20050;-59
2023/09/02 01:19:17;;;;;;;555.50;512.83;;;12.30;79.70;;;;;;5006085;28;20096;-59
2023/09/02 01:22:04;;;;;;;568.17;519.88;;;12.20;79.60;;;;;;4987934;28;20055;-59
2023/09/02 01:24:45;;;;;;;510.27;470.80;;;12.20;79.70;;;;;;5006666;28;20050;-59
2023/09/02 01:27:20;;;;;;;472.80;433.70;;;12.20;79.70;;;;;;4992467;28;20497;-59
2023/09/02 01:30:16;;;;;;;513.45;475.38;;;12.10;79.70;;;;;;4992982;28;20663;-59
2023/09/02 01:32:44;;;;;;;545.13;506.70;;;12.10;79.90;;;;;;4995739;28;20062;-59
2023/09/02 01:35:16;;;;;;;576.70;532.80;;;12.10;79.80;;;;;;5000716;28;20085;-59
2023/09/02 01:37:44;;;;;;;560.53;518.67;;;12.00;79.70;;;;;;4992811;28;20670;-59
2023/09/02 01:40:25;;;;;;;588.00;540.20;;;12.00;79.80;;;;;;5001658;28;20437;-59
2023/09/02 01:42:52;;;;;;;507.00;470.37;;;12.00;79.80;;;;;;4988277;28;20101;-59
2023/09/02 01:45:19;;;;;;;420.52;387.38;;;11.90;79.80;;;;;;5023152;28;20141;-59
2023/09/02 01:47:49;;;;;;;491.50;454.50;;;11.90;79.70;;;;;;4991268;28;20054;-59
2023/09/02 01:50:18;;;;;;;494.27;456.27;;;11.90;79.70;;;;;;5007862;28;20422;-59
2023/09/02 01:52:45;;;;;;;446.75;412.85;;;11.90;79.80;;;;;;5005045;28;20408;-59
2023/09/02 01:55:11;;;;;;;528.33;488.73;;;11.90;79.80;;;;;;4991899;28;20060;-59
2023/09/02 01:57:39;;;;;;;530.85;491.85;;;11.90;79.80;;;;;;4990858;28;20501;-59
2023/09/02 02:00:06;;;;;;;481.05;446.85;;;11.90;79.80;;;;;;4971495;28;20142;-59
2023/09/02 02:02:31;;;;;;;526.50;485.85;;;11.80;79.80;;;;;;5006727;28;20401;-59
2023/09/02 02:05:02;;;;;;;557.65;515.65;;;11.90;80.00;;;;;;4998648;28;20137;-59
2023/09/02 02:07:33;;;;;;;535.72;494.58;;;11.90;79.90;;;;;;4991893;28;20089;-59
2023/09/02 02:10:03;;;;;;;565.42;524.55;;;11.80;79.90;;;;;;5006350;28;20485;-59
2023/09/02 02:12:29;;;;;;;479.52;442.73;;;11.80;80.00;;;;;;5015798;28;20497;-59
2023/09/02 02:14:55;;;;;;;420.77;385.20;;;11.80;80.00;;;;;;5010975;28;20076;-59
2023/09/02 02:17:20;;;;;;;572.88;525.13;;;11.70;80.10;;;;;;4994706;28;20429;-59
2023/09/02 02:19:46;;;;;;;531.63;491.80;;;11.70;80.10;;;;;;4999198;28;20049;-59
2023/09/02 02:22:12;;;;;;;423.58;392.17;;;11.70;80.10;;;;;;5001843;28;20432;-59
2023/09/02 02:24:37;;;;;;;279.20;254.57;;;11.70;80.20;;;;;;5011040;28;20446;-59
2023/09/02 02:27:03;;;;;;;483.25;447.65;;;11.70;80.10;;;;;;4995233;28;20046;-59
2023/09/02 02:29:29;;;;;;;436.65;404.83;;;11.70;80.10;;;;;;4994251;28;20421;-59
2023/09/02 02:31:55;;;;;;;496.23;460.35;;;11.70;80.10;;;;;;5007605;28;20054;-59
2023/09/02 02:34:23;;;;;;;600.88;555.70;;;11.70;80.20;;;;;;5009683;28;20501;-59
2023/09/02 02:36:49;;;;;;;617.58;570.97;;;11.70;80.20;;;;;;4993539;28;20062;-59
2023/09/02 02:39:14;;;;;;;468.75;435.45;;;11.70;80.10;;;;;;5007614;28;20045;-59
2023/09/02 02:41:40;;;;;;;536.17;497.65;;;11.70;80.10;;;;;;4995609;28;20084;-59
2023/09/02 02:44:06;;;;;;;573.70;530.60;;;11.70;80.20;;;;;;4994470;28;20054;-59
2023/09/02 02:46:32;;;;;;;458.13;424.35;;;11.70;80.10;;;;;;4997513;28;20527;-59
2023/09/02 02:48:57;;;;;;;490.45;453.30;;;11.70;80.10;;;;;;5007597;28;20412;-59
2023/09/02 02:51:23;;;;;;;508.40;471.58;;;11.70;80.30;;;;;;5004750;28;20052;-59
2023/09/02 02:53:49;;;;;;;480.05;445.33;;;11.70;80.50;;;;;;4987672;28;20121;-59
2023/09/02 02:56:15;;;;;;;500.60;465.40;;;11.70;80.40;;;;;;4980415;28;20126;-60
2023/09/02 02:58:40;;;;;;;262.70;242.98;;;11.60;80.40;;;;;;5004836;28;20053;-59
2023/09/02 03:01:08;;;;;;;547.53;503.95;;;11.60;80.40;;;;;;4993388;28;20122;-59
2023/09/02 03:03:35;;;;;;;536.90;492.70;;;11.50;80.40;;;;;;4993348;28;20056;-59
2023/09/02 03:06:06;;;;;;;558.60;517.17;;;11.50;80.50;;;;;;4991114;28;20050;-59
2023/09/02 03:08:33;;;;;;;516.47;479.60;;;11.50;80.50;;;;;;4986799;28;20125;-59
2023/09/02 03:11:00;;;;;;;536.40;497.27;;;11.50;80.60;;;;;;5001241;28;20046;-59
2023/09/02 03:13:27;;;;;;;467.38;433.13;;;11.50;80.70;;;;;;4998934;28;20125;-59
2023/09/02 03:15:56;;;;;;;515.67;477.95;;;11.50;80.70;;;;;;5009834;28;20415;-59
2023/09/02 03:18:22;;;;;;;401.10;372.35;;;11.50;80.70;;;;;;4993681;28;20054;-59
2023/09/02 03:20:48;;;;;;;465.75;432.20;;;11.50;80.90;;;;;;4998802;28;20050;-59
2023/09/02 03:23:14;;;;;;;468.35;433.77;;;11.50;80.70;;;;;;4989322;28;20057;-59
2023/09/02 03:25:40;;;;;;;516.47;478.83;;;11.50;80.80;;;;;;4990436;28;20050;-59
2023/09/02 03:28:06;;;;;;;467.52;432.25;;;11.50;80.90;;;;;;5005017;28;20054;-59
2023/09/02 03:30:32;;;;;;;459.27;426.73;;;11.50;80.90;;;;;;4991134;28;20084;-59
2023/09/02 03:32:58;;;;;;;559.30;519.28;;;11.50;80.80;;;;;;5009194;28;20041;-59
2023/09/02 03:35:24;;;;;;;444.73;409.73;;;11.50;80.80;;;;;;4970879;28;20047;-59
2023/09/02 03:37:50;;;;;;;502.10;462.45;;;11.50;81.00;;;;;;5009395;28;20121;-59
2023/09/02 03:40:16;;;;;;;492.83;456.38;;;11.50;81.20;;;;;;5001330;28;20129;-59
2023/09/02 03:42:42;;;;;;;515.30;473.85;;;11.50;81.20;;;;;;4989460;28;20078;-60
2023/09/02 03:45:09;;;;;;;357.17;330.38;;;11.50;81.10;;;;;;4993403;28;20177;-59
2023/09/02 03:47:35;;;;;;;462.88;429.83;;;11.50;81.10;;;;;;4986818;28;20436;-59
2023/09/02 03:50:02;;;;;;;337.27;311.60;;;11.50;81.10;;;;;;5009870;28;20038;-60
2023/09/02 03:52:28;;;;;;;493.42;455.33;;;11.50;81.10;;;;;;4988534;28;20042;-59
2023/09/02 03:54:54;;;;;;;469.90;435.13;;;11.50;81.10;;;;;;4990087;28;20085;-59
2023/09/02 03:57:20;;;;;;;468.17;434.17;;;11.50;81.20;;;;;;4977125;28;20058;-59
2023/09/02 03:59:46;;;;;;;381.83;354.08;;;11.50;81.20;;;;;;5002596;28;20050;-59
2023/09/02 04:02:11;;;;;;;445.67;413.38;;;11.50;81.30;;;;;;4991691;28;20464;-59
2023/09/02 04:04:37;;;;;;;400.35;371.20;;;11.50;81.20;;;;;;4996442;28;20052;-60
2023/09/02 04:07:03;;;;;;;482.92;446.27;;;11.50;81.10;;;;;;4979381;28;20129;-59
2023/09/02 04:09:29;;;;;;;486.35;452.23;;;11.50;81.20;;;;;;5008895;28;20065;-60
2023/09/02 04:11:54;;;;;;;382.83;353.25;;;11.40;81.20;;;;;;4982561;28;20054;-59
2023/09/02 04:14:20;;;;;;;466.05;430.88;;;11.40;81.20;;;;;;4975836;28;20058;-59
2023/09/02 04:16:46;;;;;;;485.33;450.75;;;11.40;81.20;;;;;;4978082;28;20049;-60
2023/09/02 04:19:11;;;;;;;440.48;407.98;;;11.40;81.30;;;;;;4979640;28;20051;-59
2023/09/02 04:21:37;;;;;;;423.48;392.08;;;11.40;81.40;;;;;;4986813;28;20449;-59
2023/09/02 04:24:03;;;;;;;442.33;409.27;;;11.40;81.40;;;;;;4983002;28;20145;-59
2023/09/02 04:26:29;;;;;;;416.30;384.90;;;11.40;81.40;;;;;;4961725;28;20054;-59
2023/09/02 04:28:55;;;;;;;500.23;463.65;;;11.40;81.60;;;;;;5003262;28;20047;-59
2023/09/02 04:31:22;;;;;;;533.75;496.42;;;11.50;81.70;;;;;;5003058;28;20046;-59
2023/09/02 04:33:48;;;;;;;430.40;397.92;;;11.40;81.70;;;;;;4988290;28;20054;-59
2023/09/02 04:36:14;;;;;;;457.80;424.23;;;11.40;81.50;;;;;;4997030;28;20477;-59
2023/09/02 04:38:40;;;;;;;380.25;352.75;;;11.40;81.60;;;;;;5003220;28;20046;-59
2023/09/02 04:41:08;;;;;;;348.30;323.05;;;11.30;81.70;;;;;;4995566;28;20116;-59
2023/09/02 04:43:35;;;;;;;321.00;296.52;;;11.40;81.70;;;;;;4990123;28;20046;-60
2023/09/02 04:46:08;;;;;;;449.70;417.05;;;11.40;81.70;;;;;;5005835;28;20066;-59
2023/09/02 04:48:34;;;;;;;310.45;287.60;;;11.40;81.60;;;;;;4994561;28;20399;-59
2023/09/02 04:51:00;;;;;;;416.40;387.55;;;11.30;81.60;;;;;;4991637;28;20179;-59
2023/09/02 04:53:26;;;;;;;320.05;296.00;;;11.30;81.70;;;;;;5003342;28;20085;-59
2023/09/02 04:55:51;;;;;;;373.77;345.88;;;11.30;81.70;;;;;;4998564;28;20088;-59
2023/09/02 04:58:18;;;;;;;544.67;506.45;;;11.30;81.70;;;;;;4991926;28;20477;-59
2023/09/02 05:00:44;;;;;;;385.42;358.27;;;11.30;81.60;;;;;;4998127;28;20049;-59
2023/09/02 05:03:09;;;;;;;441.42;408.13;;;11.30;81.60;;;;;;5007352;28;20080;-60
2023/09/02 05:05:35;;;;;;;427.60;395.08;;;11.30;81.70;;;;;;4990859;28;20046;-59
2023/09/02 05:08:02;;;;;;;345.52;320.35;;;11.30;81.70;;;;;;4981369;28;20434;-59
2023/09/02 05:10:28;;;;;;;441.08;410.90;;;11.30;81.70;;;;;;5001812;28;20074;-59
2023/09/02 05:12:53;;;;;;;442.23;411.08;;;11.30;81.70;;;;;;4987915;28;20141;-59
2023/09/02 05:15:19;;;;;;;408.00;379.52;;;11.30;81.80;;;;;;4999251;28;20085;-59
2023/09/02 05:17:45;;;;;;;396.77;366.58;;;11.30;81.70;;;;;;4980745;28;20064;-59
2023/09/02 05:20:11;;;;;;;404.95;375.13;;;11.30;81.80;;;;;;4988284;28;20050;-59
2023/09/02 05:22:37;;;;;;;451.95;420.92;;;11.30;81.80;;;;;;4999117;28;20048;-60
2023/09/02 05:25:03;;;;;;;436.10;404.60;;;11.30;81.90;;;;;;5007962;28;20140;-59
2023/09/02 05:27:30;;;;;;;342.20;316.73;;;11.30;81.90;;;;;;4990483;28;20421;-59
2023/09/02 05:29:56;;;;;;;319.13;296.00;;;11.30;81.90;;;;;;5003812;28;20108;-59
2023/09/02 05:32:22;;;;;;;316.95;293.23;;;11.30;82.00;;;;;;5007270;28;20477;-59
2023/09/02 05:34:48;;;;;;;397.20;368.23;;;11.30;82.00;;;;;;5022618;28;20081;-59
2023/09/02 05:37:14;;;;;;;435.35;404.58;;;11.40;82.00;;;;;;4992141;28;20085;-59
2023/09/02 05:39:39;;;;;;;523.63;486.00;;;11.40;82.00;;;;;;5036691;28;20495;-59
2023/09/02 05:42:06;;;;;;;427.30;394.92;;;11.40;82.10;;;;;;4983413;28;20049;-59
2023/09/02 05:44:35;;;;;;;426.77;394.15;;;11.50;82.10;;;;;;4971512;28;20461;-59
2023/09/02 05:47:01;;;;;;;446.23;411.98;;;11.50;82.30;;;;;;4990522;28;20054;-59
2023/09/02 05:49:27;;;;;;;468.42;432.30;;;11.60;82.30;;;;;;5006316;28;20432;-59
2023/09/02 05:51:52;;;;;;;516.28;475.92;;;11.70;82.40;;;;;;5007578;28;20053;-59
2023/09/02 05:54:18;;;;;;;463.10;427.08;;;11.70;82.50;;;;;;4993376;28;20064;-59
2023/09/02 05:56:47;;;;;;;487.25;448.98;;;11.90;82.80;;;;;;4975795;28;20386;-59
2023/09/02 05:59:13;;;;;;;530.65;487.10;;;12.10;83.20;;;;;;5004022;28;20049;-59
2023/09/02 06:01:39;;;;;;;522.92;481.17;;;12.30;83.20;;;;;;4986426;28;20814;-59
2023/09/02 06:04:05;;;;;;;469.90;430.98;;;12.50;83.20;;;;;;4987647;28;20248;-60
2023/09/02 06:06:30;;;;;;;510.30;468.30;;;12.60;83.00;;;;;;4980956;28;20054;-59
2023/09/02 06:08:56;;;;;;;509.38;469.20;;;12.80;82.70;;;;;;5004432;28;20056;-60
2023/09/02 06:11:22;;;;;;;487.05;448.75;;;12.80;82.50;;;;;;4994251;28;20052;-59
2023/09/02 06:13:47;;;;;;;506.15;467.27;;;12.90;82.60;;;;;;4985300;28;20101;-59
2023/09/02 06:16:13;;;;;;;502.38;461.98;;;13.00;82.70;;;;;;4988830;28;20137;-60
2023/09/02 06:18:39;;;;;;;517.92;477.10;;;13.10;82.50;;;;;;5000687;28;20054;-59
2023/09/02 06:21:12;;;;;;;551.80;506.85;;;13.20;82.30;;;;;;4993513;28;20449;-60
2023/09/02 06:23:43;;;;;;;594.90;547.05;;;13.30;82.10;;;;;;5000444;28;20057;-59
2023/09/02 06:26:09;;;;;;;574.20;528.10;;;13.30;82.10;;;;;;4998918;28;20081;-60
2023/09/02 06:28:35;;;;;;;604.85;555.42;;;13.30;82.00;;;;;;4987635;28;20705;-59
2023/09/02 06:31:08;;;;;;;580.13;532.40;;;13.40;81.90;;;;;;5003737;28;20050;-59
2023/09/02 06:33:34;;;;;;;560.10;514.60;;;13.50;81.90;;;;;;5006716;28;20558;-59
2023/09/02 06:36:00;;;;;;;611.38;560.90;;;13.50;81.90;;;;;;4998662;28;20038;-59
2023/09/02 06:38:25;;;;;;;639.22;586.03;;;13.70;81.90;;;;;;4990153;28;20041;-59
2023/09/02 06:40:51;;;;;;;636.05;583.13;;;13.70;81.80;;;;;;4996665;28;20056;-59
2023/09/02 06:43:17;;;;;;;623.30;570.85;;;13.90;81.80;;;;;;4986635;28;20050;-59
2023/09/02 06:45:44;;;;;;;635.25;580.33;;;13.90;81.70;;;;;;4994585;28;20077;-59
2023/09/02 06:48:10;;;;;;;629.15;576.78;;;14.00;82.00;;;;;;4981648;28;20501;-60
2023/09/02 06:50:35;;;;;;;651.88;595.75;;;14.10;81.80;;;;;;4989962;28;20313;-59
2023/09/02 06:53:01;;;;;;;646.40;590.33;;;14.10;81.60;;;;;;4994521;28;20108;-59
2023/09/02 06:55:27;;;;;;;664.85;609.65;;;14.10;81.50;;;;;;5006761;28;20106;-59
2023/09/02 06:57:53;;;;;;;659.60;604.17;;;14.20;81.50;;;;;;4977107;28;20050;-59
2023/09/02 07:00:18;;;;;;;610.50;561.42;;;14.20;81.60;;;;;;4989743;28;20052;-59
2023/09/02 07:02:44;;;;;;;686.97;626.42;;;14.30;81.50;;;;;;4976738;28;20105;-59
2023/09/02 07:05:10;;;;;;;671.40;613.10;;;14.30;81.50;;;;;;5009768;28;20077;-59
2023/09/02 07:07:37;;;;;;;683.13;624.63;;;14.40;81.40;;;;;;4976359;28;20471;-59
2023/09/02 07:10:04;;;;;;;683.72;623.75;;;14.50;81.50;;;;;;4987449;28;20433;-59
2023/09/02 07:12:30;;;;;;;684.80;625.47;;;14.60;81.50;;;;;;4995180;28;20053;-59
2023/09/02 07:14:55;;;;;;;696.42;637.05;;;14.70;81.40;;;;;;4995096;28;20390;-59
2023/09/02 07:17:21;;;;;;;707.72;644.58;;;14.70;81.40;;;;;;4977961;28;20049;-60
2023/09/02 07:19:47;;;;;;;683.90;621.78;;;14.80;81.40;;;;;;4988230;28;20042;-59
2023/09/02 07:22:12;;;;;;;692.78;632.75;;;14.90;81.40;;;;;;4993080;28;20085;-60
2023/09/02 07:24:38;;;;;;;695.30;633.95;;;15.00;81.30;;;;;;4991483;28;20120;-60
2023/09/02 07:27:04;;;;;;;677.53;616.15;;;15.00;81.40;;;;;;4982669;28;20050;-60
2023/09/02 07:29:30;;;;;;;747.58;682.00;;;15.20;81.50;;;;;;4990339;28;20145;-60
2023/09/02 07:31:58;;;;;;;735.60;669.35;;;15.30;81.10;;;;;;4999571;28;20042;-59
2023/09/02 07:34:24;;;;;;;708.80;647.38;;;15.30;81.00;;;;;;4986363;28;20050;-60
2023/09/02 07:36:50;;;;;;;788.80;720.90;;;15.40;80.90;;;;;;4977085;28;20056;-59
2023/09/02 07:39:16;;;;;;;739.03;675.10;;;15.40;80.80;;;;;;5001029;28;20041;-60
2023/09/02 07:41:43;;;;;;;752.15;684.17;;;15.50;80.70;;;;;;4990285;28;20061;-60
2023/09/02 07:44:11;;;;;;;740.05;671.85;;;15.60;80.60;;;;;;4987012;28;20749;-59
2023/09/02 07:46:37;;;;;;;770.85;701.20;;;15.60;80.50;;;;;;4978917;28;20778;-59
2023/09/02 07:49:03;;;;;;;725.65;659.42;;;15.80;80.40;;;;;;4986369;28;20064;-59
2023/09/02 07:51:28;;;;;;;781.20;712.15;;;15.80;80.10;;;;;;4997721;28;20054;-60
2023/09/02 07:53:54;;;;;;;720.03;656.53;;;15.90;80.00;;;;;;4988521;28;20081;-59
2023/09/02 07:56:20;;;;;;;803.97;729.60;;;16.00;79.80;;;;;;4978428;28;20057;-60
2023/09/02 07:58:48;;;;;;;724.70;659.28;;;16.00;79.60;;;;;;4987537;28;20085;-60
2023/09/02 08:01:14;;;;;;;762.78;692.95;;;16.10;79.50;;;;;;4992061;28;20520;-60
2023/09/02 08:03:40;;;;;;;741.95;672.63;;;16.10;79.10;;;;;;4989147;28;20428;-60
2023/09/02 08:06:08;;;;;;;747.40;679.55;;;16.20;79.00;;;;;;4983362;28;20050;-60
2023/09/02 08:08:35;;;;;;;747.63;680.40;;;16.20;79.00;;;;;;4988033;28;20447;-60
2023/09/02 08:11:05;;;;;;;791.92;718.97;;;16.40;78.80;;;;;;4970852;28;20058;-60
2023/09/02 08:13:31;;;;;;;745.42;680.72;;;16.40;78.30;;;;;;4989098;28;20094;-60
2023/09/02 08:15:58;;;;;;;712.50;649.40;;;16.40;78.10;;;;;;4993614;28;20154;-60
2023/09/02 08:18:23;;;;;;;780.55;707.55;;;16.50;78.20;;;;;;4971188;28;20096;-60
2023/09/02 08:20:49;;;;;;;772.92;698.88;;;16.50;77.60;;;;;;4982762;28;20054;-59
2023/09/02 08:23:15;;;;;;;792.50;721.00;;;16.60;77.50;;;;;;4988023;28;20077;-60
2023/09/02 08:25:40;;;;;;;765.00;697.45;;;16.60;77.40;;;;;;4968746;28;20581;-60
2023/09/02 08:28:06;;;;;;;747.00;677.60;;;16.70;77.00;;;;;;4971322;28;20054;-60
2023/09/02 08:30:32;;;;;;;767.17;694.65;;;16.70;76.90;;;;;;4970325;28;20050;-60
2023/09/02 08:32:57;;;;;;;720.75;660.28;;;16.80;76.60;;;;;;4988466;28;20046;-59
2023/09/02 08:35:23;;;;;;;754.90;684.50;;;16.80;76.40;;;;;;4990030;28;20073;-60
2023/09/02 08:37:51;;;;;;;741.33;679.58;;;16.80;76.20;;;;;;4958497;28;20467;-60
2023/09/02 08:40:17;;;;;;;734.80;668.28;;;16.90;76.20;;;;;;5017855;28;20050;-60
2023/09/02 08:42:43;;;;;;;728.83;662.80;;;16.90;76.00;;;;;;4985210;28;20077;-60
2023/09/02 08:45:09;;;;;;;727.90;661.85;;;17.00;75.70;;;;;;5001173;28;20091;-60
2023/09/02 08:47:38;;;;;;;808.00;732.63;;;17.00;75.50;;;;;;4981725;28;20050;-59
2023/09/02 08:50:09;;;;;;;848.08;761.03;;;17.00;75.40;;;;;;5001610;28;20163;-60
2023/09/02 08:52:36;;;;;;;763.78;696.05;;;17.00;75.30;;;;;;4984663;28;20145;-60
2023/09/02 08:55:03;;;;;;;719.00;657.00;;;17.10;75.20;;;;;;4988294;28;20042;-60
2023/09/02 08:57:30;;;;;;;771.75;697.95;;;17.20;75.00;;;;;;4976835;28;20539;-60
2023/09/02 08:59:55;;;;;;;814.75;736.30;;;17.20;74.80;;;;;;4992785;28;20046;-60
2023/09/02 09:02:22;;;;;;;756.65;682.45;;;17.20;74.50;;;;;;4986306;28;20440;-59
2023/09/02 09:04:48;;;;;;;814.33;738.10;;;17.20;74.40;;;;;;4988699;28;20054;-60
2023/09/02 09:07:17;;;;;;;817.80;740.05;;;17.20;74.20;;;;;;4969934;28;20092;-60
2023/09/02 09:09:45;;;;;;;753.33;685.55;;;17.20;74.00;;;;;;4998851;28;20504;-60
2023/09/02 09:12:12;;;;;;;815.30;736.05;;;17.20;73.90;;;;;;4987509;28;20054;-60
2023/09/02 09:14:45;;;;;;;758.55;687.55;;;17.30;73.90;;;;;;5001992;28;20104;-60
2023/09/02 09:17:12;;;;;;;767.72;697.03;;;17.40;73.70;;;;;;4989558;28;20052;-60
2023/09/02 09:19:38;;;;;;;765.25;695.20;;;17.40;73.70;;;;;;4988079;28;20478;-60
2023/09/02 09:22:04;;;;;;;744.20;676.33;;;17.40;73.60;;;;;;4986599;28;20047;-60
2023/09/02 09:24:30;;;;;;;796.20;716.30;;;17.50;73.40;;;;;;4988600;28;20296;-60
2023/09/02 09:26:58;;;;;;;810.00;732.42;;;17.50;73.30;;;;;;4973416;28;20120;-60
2023/09/02 09:29:24;;;;;;;694.08;636.95;;;17.60;73.40;;;;;;4971919;28;20078;-60
2023/09/02 09:32:07;;;;;;;742.58;678.40;;;17.60;73.40;;;;;;5002410;28;20489;-60
2023/09/02 09:34:41;;;;;;;826.70;745.08;;;17.70;72.80;;;;;;4989571;28;20073;-60
2023/09/02 09:37:08;;;;;;;826.83;747.33;;;17.80;72.90;;;;;;4987423;28;20086;-60
2023/09/02 09:39:43;;;;;;;824.72;742.08;;;17.90;72.50;;;;;;4988869;28;20057;-60
2023/09/02 09:42:14;;;;;;;815.03;732.63;;;18.00;71.90;;;;;;4987793;28;20069;-60
2023/09/02 09:44:58;;;;;;;817.67;737.13;;;18.10;72.10;;;;;;4985913;28;20464;-60
2023/09/02 09:47:25;;;;;;;791.67;716.33;;;18.20;71.60;;;;;;4972720;28;20140;-60
2023/09/02 09:49:51;;;;;;;829.45;751.25;;;18.20;71.90;;;;;;4987620;28;20112;-60
2023/09/02 09:52:20;;;;;;;829.78;747.95;;;18.10;71.80;;;;;;4987763;28;20125;-60
2023/09/02 09:54:51;;;;;;;848.03;765.63;;;18.20;71.80;;;;;;4988109;28;20529;-60
2023/09/02 09:57:36;;;;;;;852.10;768.87;;;18.20;71.70;;;;;;4970228;28;20268;-60
2023/09/02 10:00:05;;;;;;;849.50;769.10;;;18.30;71.20;;;;;;4987960;28;20074;-60
2023/09/02 10:02:30;;;;;;;854.90;772.28;;;18.20;71.50;;;;;;4989653;28;20511;-60
2023/09/02 10:04:58;;;;;;;809.28;732.28;;;18.30;71.70;;;;;;4994379;28;20074;-60
2023/09/02 10:07:26;;;;;;;920.55;828.33;;;18.30;71.50;;;;;;4976290;28;20057;-60
2023/09/02 10:09:56;;;;;;;787.30;715.90;;;18.30;71.80;;;;;;4996872;28;20501;-60
2023/09/02 10:12:22;;;;;;;820.67;742.58;;;18.40;71.90;;;;;;4996428;28;20117;-60
2023/09/02 10:14:49;;;;;;;863.58;780.00;;;18.50;71.90;;;;;;4997754;28;20045;-59
2023/09/02 10:17:17;;;;;;;882.72;795.80;;;18.50;71.70;;;;;;4980958;28;20041;-59
2023/09/02 10:19:44;;;;;;;827.53;744.78;;;18.60;71.90;;;;;;4996698;28;20062;-60
2023/09/02 10:22:19;;;;;;;763.65;694.70;;;18.70;71.60;;;;;;4996462;28;20058;-60
2023/09/02 10:24:56;;;;;;;765.10;696.45;;;18.70;71.00;;;;;;4984886;28;20520;-60
2023/09/02 10:27:23;;;;;;;874.38;788.35;;;18.80;70.70;;;;;;4962525;28;20046;-60
2023/09/02 10:29:58;;;;;;;892.83;799.08;;;18.80;70.70;;;;;;4997791;28;20112;-60
2023/09/02 10:32:28;;;;;;;876.17;785.55;;;18.70;70.10;;;;;;5006264;28;20054;-60
2023/09/02 10:35:11;;;;;;;962.00;862.00;;;18.60;70.00;;;;;;4991871;28;20058;-60
2023/09/02 10:37:58;;;;;;;815.75;738.17;;;18.60;69.80;;;;;;4986237;28;20150;-60
2023/09/02 10:40:25;;;;;;;1462.85;999.90;;;18.60;69.50;;;;;;5000343;28;20045;-60
2023/09/02 10:42:52;;;;;;;1286.10;957.67;;;18.60;70.20;;;;;;5010434;28;20620;-60
2023/09/02 10:45:18;;;;;;;900.97;811.00;;;18.70;70.20;;;;;;5010033;28;20505;-60
2023/09/02 10:47:49;;;;;;;865.67;781.70;;;18.80;70.20;;;;;;4994636;28;20057;-60
2023/09/02 10:50:18;;;;;;;894.20;807.72;;;18.90;70.20;;;;;;5010342;28;20172;-60
2023/09/02 10:52:44;;;;;;;882.67;798.25;;;18.90;70.20;;;;;;5007832;28;20053;-60
2023/09/02 10:55:11;;;;;;;904.28;815.80;;;18.90;70.30;;;;;;4991122;28;20054;-60
2023/09/02 10:57:56;;;;;;;922.80;831.50;;;18.90;70.40;;;;;;4985699;28;20073;-60
2023/09/02 11:00:26;;;;;;;978.65;874.50;;;19.00;70.40;;;;;;4998703;28;20133;-60
2023/09/02 11:02:57;;;;;;;817.87;739.57;;;19.00;70.30;;;;;;4990134;28;20896;-60
2023/09/02 11:05:24;;;;;;;919.92;822.13;;;19.10;70.10;;;;;;4992773;28;20050;-60
2023/09/02 11:07:52;;;;;;;1416.38;999.90;;;19.20;69.90;;;;;;4991938;28;20049;-60
2023/09/02 11:10:18;;;;;;;943.65;844.60;;;19.20;69.20;;;;;;5005685;28;20093;-60
2023/09/02 11:12:59;;;;;;;895.58;800.08;;;19.30;69.10;;;;;;4992200;28;20042;-60
2023/09/02 11:15:26;;;;;;;886.10;800.28;;;19.40;68.60;;;;;;5010073;28;20050;-60
2023/09/02 11:17:52;;;;;;;866.15;777.85;;;19.50;69.30;;;;;;4985269;28;20049;-60
2023/09/02 11:20:20;;;;;;;885.22;799.33;;;19.60;69.50;;;;;;5005347;28;20054;-60
2023/09/02 11:23:04;;;;;;;903.67;815.88;;;19.70;69.30;;;;;;4990333;28;20449;-59
2023/09/02 11:25:41;;;;;;;867.40;781.85;;;19.70;69.00;;;;;;4990715;28;20050;-60
2023/09/02 11:28:19;;;;;;;892.60;808.10;;;19.70;69.00;;;;;;4978239;28;20078;-60
2023/09/02 11:31:03;;;;;;;887.25;799.33;;;19.50;69.20;;;;;;5003182;28;20081;-60
2023/09/02 11:33:29;;;;;;;863.80;782.83;;;19.50;69.30;;;;;;5001048;28;20417;-60
2023/09/02 11:36:04;;;;;;;885.08;796.10;;;19.50;69.40;;;;;;5005234;28;20046;-63
2023/09/02 11:38:32;;;;;;;860.08;774.33;;;19.50;69.30;;;;;;4997439;28;20041;-60
2023/09/02 11:40:58;;;;;;;887.97;802.30;;;19.50;69.10;;;;;;4993514;28;20054;-61
2023/09/02 11:43:31;;;;;;;886.70;801.65;;;19.50;69.30;;;;;;4990071;28;20374;-60
2023/09/02 11:45:59;;;;;;;888.40;797.03;;;19.50;69.20;;;;;;5009770;28;20053;-60
2023/09/02 11:48:26;;;;;;;820.80;745.08;;;19.50;69.10;;;;;;4993283;28;20420;-60
2023/09/02 11:50:53;;;;;;;859.20;773.47;;;19.40;68.80;;;;;;5004449;28;20050;-60
2023/09/02 11:53:19;;;;;;;890.20;801.55;;;19.30;69.00;;;;;;4990300;28;20058;-60
2023/09/02 11:55:44;;;;;;;884.25;795.13;;;19.30;69.10;;;;;;4989091;28;20058;-60
2023/09/02 11:58:14;;;;;;;825.83;745.53;;;19.40;69.30;;;;;;4986132;28;20050;-60
2023/09/02 12:00:43;;;;;;;892.20;796.20;;;19.50;69.00;;;;;;4993989;28;20064;-60
2023/09/02 12:03:09;;;;;;;902.13;805.53;;;19.60;68.50;;;;;;5002186;28;20048;-60
2023/09/02 12:05:49;;;;;;;832.97;749.40;;;19.60;68.20;;;;;;4989232;28;20046;-60
2023/09/02 12:08:16;;;;;;;866.55;781.03;;;19.50;67.40;;;;;;4972044;28;20085;-59
2023/09/02 12:10:45;;;;;;;848.22;768.13;;;19.50;68.20;;;;;;4988993;28;20045;-60